Time;durP1;ratioP1;P1;durP2;ratioP2;P2;SDS_P1;SDS_P2;PMS_P1;PMS_P2;Temp;Humidity;BMP_temperature;BMP_pressure;BME280_temperature;BME280_humidity;BME280_pressure;Samples;Min_cycle;Max_cycle;Signal;HPM_P1;HPM_P2
2021/12/16 00:03:17;;;;;;;106.50;38.13;;;;;;;13.52;100.00;103261.03;5053682;28;20029;-58
2021/12/16 00:08:40;;;;;;;104.93;38.58;;;;;;;13.53;100.00;103258.19;5039132;28;20052;-58
2021/12/16 00:35:39;;;;;;;102.95;40.47;;;;;;;13.91;100.00;103274.94;5072635;28;20020;-60
2021/12/16 00:38:05;;;;;;;95.47;37.17;;;;;;;13.86;100.00;103271.88;5072265;28;20050;-59
2021/12/16 00:40:30;;;;;;;101.25;37.58;;;;;;;13.90;100.00;103272.38;5054725;28;20123;-59
2021/12/16 00:43:12;;;;;;;114.80;38.65;;;;;;;14.12;100.00;103275.56;5066056;28;20119;-60
2021/12/16 00:55:56;;;;;;;106.50;37.30;;;;;;;13.75;100.00;103269.44;5092730;28;20407;-60
2021/12/16 00:58:29;;;;;;;111.17;40.03;;;;;;;14.04;100.00;103269.13;5073749;28;20028;-60
2021/12/16 01:01:14;;;;;;;100.97;37.90;;;;;;;14.29;100.00;103269.25;5074309;28;20300;-59
2021/12/16 01:03:51;;;;;;;109.37;38.73;;;;;;;13.97;100.00;103277.97;5074547;28;20765;-59
2021/12/16 01:34:31;;;;;;;82.53;33.63;;;;;;;15.12;100.00;103307.28;5075690;28;20272;-49
2021/12/16 01:40:14;;;;;;;82.13;32.77;;;;;;;14.89;100.00;103294.44;5053118;28;20040;-53
2021/12/16 01:50:37;;;;;;;82.40;32.17;;;;;;;14.88;100.00;103308.06;5093789;28;20291;-51
2021/12/16 01:56:02;;;;;;;87.15;35.40;;;;;;;14.86;100.00;103310.06;5075259;28;20272;-49
2021/12/16 01:58:31;;;;;;;88.40;35.00;;;;;;;14.88;100.00;103325.06;5076058;28;20350;-52
2021/12/16 02:01:27;;;;;;;89.53;33.23;;;;;;;14.94;100.00;103328.94;5059115;28;20851;-49
2021/12/16 02:03:56;;;;;;;81.43;35.83;;;;;;;14.84;100.00;103329.09;5075304;28;20359;-51
2021/12/16 02:09:30;;;;;;;86.13;33.83;;;;;;;14.83;100.00;103331.97;5094733;28;20260;-51
2021/12/16 02:31:44;;;;;;;88.40;31.37;;;;;;;15.04;100.00;103351.22;5078669;28;20287;-53
2021/12/16 02:36:58;;;;;;;86.17;33.40;;;;;;;15.33;100.00;103341.84;5079105;28;20783;-50
2021/12/16 02:39:33;;;;;;;77.60;32.47;;;;;;;15.22;100.00;103339.47;5061619;28;20692;-52
2021/12/16 02:42:07;;;;;;;91.50;34.07;;;;;;;15.08;100.00;103335.56;5062346;28;20265;-52
2021/12/16 02:48:29;;;;;;;88.23;34.13;;;;;;;15.03;100.00;103346.84;5079248;28;20272;-48
2021/12/16 02:50:04;;;;;;;73.47;31.20;;;;;;;15.15;100.00;103346.53;5081856;28;20587;-48
2021/12/16 02:52:30;;;;;;;76.03;31.05;;;;;;;15.18;100.00;103341.66;5061730;28;20261;-53
2021/12/16 02:54:56;;;;;;;90.95;32.33;;;;;;;15.15;100.00;103343.84;5078318;28;20039;-49
2021/12/16 02:57:24;;;;;;;75.83;31.83;;;;;;;14.91;100.00;103345.44;5077857;28;20465;-49
2021/12/16 02:59:52;;;;;;;71.43;31.07;;;;;;;15.15;100.00;103342.00;5096844;28;20274;-48
2021/12/16 03:02:19;;;;;;;72.93;31.87;;;;;;;14.79;100.00;103341.38;5096853;28;20272;-48
2021/12/16 03:04:52;;;;;;;89.03;33.63;;;;;;;14.79;100.00;103347.59;5078622;28;20291;-48
2021/12/16 03:07:19;;;;;;;83.27;34.03;;;;;;;14.49;100.00;103336.31;5096133;28;20280;-50
2021/12/16 03:15:51;;;;;;;73.30;32.63;;;;;;;14.71;100.00;103332.22;5078463;28;20351;-49
2021/12/16 03:20:41;;;;;;;82.68;32.28;;;;;;;14.49;100.00;103331.75;5077548;28;20661;-54
2021/12/16 03:24:02;;;;;;;69.77;31.03;;;;;;;14.63;100.00;103332.19;5078404;28;20465;-55
2021/12/16 03:26:28;;;;;;;90.13;34.17;;;;;;;14.50;100.00;103332.63;5072124;28;20261;-50
2021/12/16 03:34:24;;;;;;;85.15;33.85;;;;;;;14.35;100.00;103337.75;5077505;28;20036;-52
2021/12/16 03:37:15;;;;;;;83.13;29.98;;;;;;;14.29;100.00;103333.00;5078042;28;20054;-49
2021/12/16 03:39:54;;;;;;;82.35;33.30;;;;;;;14.14;100.00;103341.66;5094729;28;20055;-50
2021/12/16 03:42:27;;;;;;;92.72;32.00;;;;;;;14.22;100.00;103340.03;5077855;28;20155;-52
2021/12/16 03:44:59;;;;;;;93.20;32.30;;;;;;;14.27;100.00;103343.94;5078193;28;20085;-55
2021/12/16 03:47:47;;;;;;;90.72;32.95;;;;;;;14.13;100.00;103355.28;5077791;28;20108;-53
2021/12/16 03:50:18;;;;;;;80.03;33.53;;;;;;;14.17;100.00;103352.13;5077434;28;20023;-51
2021/12/16 03:52:48;;;;;;;91.05;33.35;;;;;;;14.29;100.00;103357.22;5077395;28;20032;-52
2021/12/16 03:55:15;;;;;;;93.25;32.20;;;;;;;14.12;100.00;103346.38;5077127;28;20028;-56
2021/12/16 03:57:41;;;;;;;85.53;34.38;;;;;;;14.15;100.00;103356.81;5077089;28;20028;-51
2021/12/16 04:00:21;;;;;;;81.82;32.13;;;;;;;14.24;100.00;103357.72;5077061;28;20064;-49
2021/12/16 04:02:50;;;;;;;92.93;32.83;;;;;;;14.19;100.00;103351.97;5076674;28;20031;-52
2021/12/16 04:05:23;;;;;;;86.05;33.38;;;;;;;14.15;100.00;103355.97;5077418;28;20405;-52
2021/12/16 04:07:49;;;;;;;89.00;33.15;;;;;;;14.06;100.00;103357.75;5076713;28;20033;-50
2021/12/16 04:10:53;;;;;;;90.78;33.50;;;;;;;13.90;100.00;103351.25;5077262;28;20040;-53
2021/12/16 04:13:23;;;;;;;92.65;34.08;;;;;;;14.00;100.00;103344.91;5066284;28;20472;-53
2021/12/16 04:15:56;;;;;;;88.18;32.45;;;;;;;13.79;100.00;103340.72;5077822;28;20035;-53
2021/12/16 04:18:22;;;;;;;82.43;33.95;;;;;;;13.54;100.00;103343.22;5077471;28;20142;-52
2021/12/16 04:20:49;;;;;;;83.72;34.35;;;;;;;13.99;100.00;103351.31;5077443;28;20334;-51
2021/12/16 04:23:18;;;;;;;91.25;32.35;;;;;;;13.68;100.00;103343.66;5094432;28;20372;-48
2021/12/16 04:25:45;;;;;;;93.82;33.88;;;;;;;13.80;100.00;103341.59;5076447;28;20035;-51
2021/12/16 04:28:18;;;;;;;90.40;34.63;;;;;;;13.67;100.00;103342.81;5076479;28;20461;-52
2021/12/16 04:30:44;;;;;;;89.85;31.60;;;;;;;13.53;100.00;103338.00;5094930;28;20028;-49
2021/12/16 04:33:11;;;;;;;97.57;33.72;;;;;;;13.98;100.00;103349.63;5075505;28;20036;-49
2021/12/16 04:35:38;;;;;;;97.72;33.58;;;;;;;13.85;100.00;103355.41;5076368;28;20028;-51
2021/12/16 04:38:06;;;;;;;90.22;33.70;;;;;;;13.87;100.00;103348.88;5094246;28;20048;-50
2021/12/16 04:40:36;;;;;;;92.32;33.83;;;;;;;13.77;100.00;103350.78;5076755;28;20067;-50
2021/12/16 04:43:05;;;;;;;91.60;33.55;;;;;;;13.93;100.00;103354.63;5076546;28;20028;-51
2021/12/16 04:45:41;;;;;;;86.45;33.72;;;;;;;13.73;100.00;103352.13;5061777;28;20473;-52
2021/12/16 04:48:07;;;;;;;90.97;31.00;;;;;;;13.96;100.00;103365.94;5043178;28;20028;-49
2021/12/16 04:50:38;;;;;;;90.82;34.45;;;;;;;13.75;100.00;103361.72;5076117;28;20047;-51
2021/12/16 04:53:04;;;;;;;;;;;;;;;13.85;100.00;103364.34;5076422;28;20151;-51
2021/12/16 04:55:34;;;;;;;88.82;31.95;;;;;;;13.62;100.00;103359.44;5075620;28;19903;-51
2021/12/16 04:57:59;;;;;;;92.77;32.90;;;;;;;13.72;100.00;103358.50;5075903;28;20044;-52
2021/12/16 05:00:25;;;;;;;83.82;32.55;;;;;;;13.64;100.00;103364.63;5076416;28;20586;-52
2021/12/16 05:03:05;;;;;;;83.53;32.15;;;;;;;13.88;100.00;103364.03;5076185;28;20085;-51
2021/12/16 05:05:37;;;;;;;83.00;31.42;;;;;;;13.59;100.00;103364.25;5076454;28;20071;-49
2021/12/16 05:08:04;;;;;;;85.75;32.45;;;;;;;13.79;100.00;103366.78;5060067;28;20039;-52
2021/12/16 05:10:37;;;;;;;83.10;31.85;;;;;;;13.68;100.00;103367.88;5076021;28;20028;-50
2021/12/16 05:13:22;;;;;;;81.43;32.28;;;;;;;13.66;100.00;103361.81;5076299;28;20043;-54
2021/12/16 05:15:49;;;;;;;82.95;31.77;;;;;;;13.72;100.00;103369.25;5094244;28;20039;-49
2021/12/16 05:18:25;;;;;;;80.13;30.38;;;;;;;13.80;100.00;103380.06;5075344;28;20081;-51
2021/12/16 05:20:55;;;;;;;84.35;32.10;;;;;;;13.72;100.00;103370.06;5075774;28;20036;-50
2021/12/16 05:28:38;;;;;;;89.55;31.90;;;;;;;13.76;100.00;103378.69;5076388;28;20032;-52
2021/12/16 05:31:04;;;;;;;90.82;31.52;;;;;;;13.75;100.00;103374.31;5058960;28;20028;-50
2021/12/16 05:33:36;;;;;;;89.68;30.98;;;;;;;13.69;100.00;103381.16;5060574;28;20511;-49
2021/12/16 05:36:04;;;;;;;86.63;31.63;;;;;;;13.60;100.00;103380.22;5076719;28;20051;-54
2021/12/16 05:38:30;;;;;;;78.07;30.00;;;;;;;13.73;100.00;103387.06;5058984;28;20135;-50
2021/12/16 05:41:00;;;;;;;81.00;29.25;;;;;;;13.77;100.00;103402.75;5075515;28;20047;-49
2021/12/16 05:43:31;;;;;;;96.75;31.23;;;;;;;13.61;100.00;103398.06;5061731;28;20472;-53
2021/12/16 05:45:59;;;;;;;87.25;29.30;;;;;;;13.71;100.00;103397.13;5079633;28;20043;-49
2021/12/16 05:48:42;;;;;;;119.32;30.60;;;;;;;13.51;100.00;103397.28;5079471;28;20036;-52
2021/12/16 05:51:12;;;;;;;100.97;31.67;;;;;;;13.57;100.00;103395.84;5080099;28;20039;-51
2021/12/16 05:53:40;;;;;;;160.10;30.42;;;;;;;13.66;100.00;103404.81;5079209;28;20077;-51
2021/12/16 05:56:18;;;;;;;198.75;33.58;;;;;;;13.44;100.00;103406.97;5079643;28;20028;-53
2021/12/16 05:58:45;;;;;;;232.25;34.13;;;;;;;13.54;100.00;103407.72;5079556;28;20484;-55
2021/12/16 06:01:23;;;;;;;144.55;30.48;;;;;;;13.53;100.00;103410.59;5079364;28;20020;-56
2021/12/16 06:03:49;;;;;;;212.48;32.70;;;;;;;13.54;100.00;103404.22;5063528;28;20131;-53
2021/12/16 06:06:15;;;;;;;320.38;37.78;;;;;;;13.46;100.00;103416.53;5079413;28;20099;-54
2021/12/16 06:08:42;;;;;;;;;;;;;;;13.45;100.00;103414.84;5079538;28;20040;-52
2021/12/16 06:11:18;;;;;;;197.00;32.55;;;;;;;13.46;100.00;103421.09;5079243;28;20007;-49
2021/12/16 06:22:38;;;;;;;149.38;29.25;;;;;;;13.41;100.00;103418.00;5097139;28;20043;-50
2021/12/16 06:27:54;;;;;;;115.90;27.77;;;;;;;13.46;100.00;103431.84;5096524;28;20072;-50
2021/12/16 06:30:24;;;;;;;167.25;30.60;;;;;;;13.44;100.00;103434.66;5096709;28;20388;-51
2021/12/16 06:32:50;;;;;;;108.88;25.13;;;;;;;13.46;100.00;103431.84;5078210;28;20120;-50
2021/12/16 06:35:15;;;;;;;125.82;24.60;;;;;;;13.48;100.00;103435.22;5097353;28;20119;-49
2021/12/16 06:37:41;;;;;;;116.57;22.67;;;;;;;13.45;100.00;103430.16;5096405;28;20360;-55
2021/12/16 06:40:18;;;;;;;112.15;24.25;;;;;;;13.42;100.00;103433.13;5079232;28;20158;-53
2021/12/16 06:42:57;;;;;;;98.75;24.00;;;;;;;13.44;100.00;103437.34;5078456;28;20481;-49
2021/12/16 06:45:28;;;;;;;110.75;23.50;;;;;;;13.41;100.00;103434.13;5078740;28;20036;-52
2021/12/16 06:48:09;;;;;;;161.25;25.50;;;;;;;13.33;100.00;103433.00;5096129;28;20036;-51
2021/12/16 06:50:56;;;;;;;126.10;24.45;;;;;;;13.29;100.00;103438.84;5096057;28;20111;-50
2021/12/16 06:53:28;;;;;;;151.45;25.13;;;;;;;13.27;100.00;103439.00;5097014;28;20036;-50
2021/12/16 06:56:05;;;;;;;206.13;26.45;;;;;;;13.25;100.00;103432.91;5095634;28;20085;-52
2021/12/16 06:58:41;;;;;;;209.02;27.77;;;;;;;13.26;100.00;103442.66;5096296;28;20039;-52
2021/12/16 07:01:14;;;;;;;193.90;24.73;;;;;;;13.23;100.00;103453.72;5096303;28;20055;-53
2021/12/16 07:03:48;;;;;;;154.65;24.77;;;;;;;13.17;100.00;103454.31;5095984;28;20106;-52
2021/12/16 07:06:28;;;;;;;118.03;24.73;;;;;;;13.19;100.00;103442.41;5079223;28;20032;-48
2021/12/16 07:09:04;;;;;;;253.25;31.10;;;;;;;13.23;100.00;103450.19;5096419;28;20036;-48
2021/12/16 07:11:36;;;;;;;114.95;24.08;;;;;;;13.13;100.00;103452.91;5096302;28;20039;-49
2021/12/16 07:14:04;;;;;;;104.93;26.25;;;;;;;13.20;100.00;103473.66;5095458;28;20046;-51
2021/12/16 07:16:30;;;;;;;124.05;25.33;;;;;;;13.36;100.00;103482.06;5078217;28;20365;-48
2021/12/16 07:18:57;;;;;;;109.32;26.17;;;;;;;13.43;100.00;103491.28;5095869;28;20107;-49
2021/12/16 07:21:25;;;;;;;88.40;24.00;;;;;;;13.30;100.00;103487.06;5095767;28;20477;-48
2021/12/16 07:23:51;;;;;;;135.90;26.27;;;;;;;13.26;100.00;103491.03;5077272;28;20038;-50
2021/12/16 07:26:17;;;;;;;102.43;22.88;;;;;;;13.27;100.00;103495.41;5095534;28;20447;-51
2021/12/16 07:28:42;;;;;;;101.72;23.42;;;;;;;13.32;100.00;103500.34;5095595;28;20036;-48
2021/12/16 07:31:08;;;;;;;149.43;25.03;;;;;;;13.26;100.00;103496.41;5077765;28;20061;-50
2021/12/16 07:33:34;;;;;;;105.03;24.42;;;;;;;13.23;100.00;103496.72;5077533;28;20335;-48
2021/12/16 07:36:00;;;;;;;130.68;24.02;;;;;;;13.19;100.00;103506.06;5095114;28;20406;-48
2021/12/16 07:38:26;;;;;;;157.75;25.60;;;;;;;13.20;100.00;103518.50;5095275;28;20055;-47
2021/12/16 07:40:53;;;;;;;112.47;23.60;;;;;;;13.14;100.00;103509.19;5095485;28;20032;-53
2021/12/16 07:46:02;;;;;;;93.80;24.45;;;;;;;13.04;100.00;103530.72;5095652;28;20032;-52
2021/12/16 07:48:28;;;;;;;95.93;24.33;;;;;;;13.03;100.00;103536.22;5094955;28;20047;-53
2021/12/16 07:50:56;;;;;;;86.20;23.77;;;;;;;13.07;100.00;103520.66;5076682;28;20060;-53
2021/12/16 07:53:22;;;;;;;87.28;22.85;;;;;;;13.09;100.00;103537.47;5095205;28;20031;-50
2021/12/16 07:55:48;;;;;;;83.53;26.10;;;;;;;13.03;100.00;103534.41;5095355;28;20032;-50
2021/12/16 07:58:14;;;;;;;88.60;24.98;;;;;;;13.12;100.00;103539.88;5094796;28;20046;-54
2021/12/16 08:00:40;;;;;;;81.03;22.05;;;;;;;13.15;100.00;103542.28;5094691;28;20032;-49
2021/12/16 08:03:08;;;;;;;82.85;23.23;;;;;;;13.02;100.00;103538.06;5095009;28;20493;-52
2021/12/16 08:05:39;;;;;;;67.05;21.38;;;;;;;13.04;100.00;103544.16;5076848;28;20193;-52
2021/12/16 08:08:08;;;;;;;99.38;22.48;;;;;;;12.95;100.00;103552.22;5094115;28;20063;-51
2021/12/16 08:10:35;;;;;;;52.83;20.55;;;;;;;13.05;100.00;103553.06;5095080;28;20037;-53
2021/12/16 08:13:01;;;;;;;63.22;21.05;;;;;;;13.02;100.00;103554.19;5094829;28;20085;-50
2021/12/16 08:15:27;;;;;;;73.70;21.23;;;;;;;13.03;100.00;103561.25;5094836;28;20020;-51
2021/12/16 08:17:54;;;;;;;143.00;23.98;;;;;;;13.02;100.00;103564.06;5094813;28;20082;-56
2021/12/16 08:20:21;;;;;;;93.65;21.05;;;;;;;12.87;100.00;103566.38;5076230;28;20492;-54
2021/12/16 08:22:48;;;;;;;59.65;20.35;;;;;;;12.88;100.00;103568.06;5094513;28;20032;-55
2021/12/16 08:25:15;;;;;;;51.67;18.90;;;;;;;12.94;100.00;103577.41;5095290;28;20016;-54
2021/12/16 08:27:41;;;;;;;;;;;;;;;13.02;100.00;103583.75;5064276;28;20036;-51
2021/12/16 08:30:13;;;;;;;52.63;17.37;;;;;;;13.01;100.00;103582.06;5099201;28;19915;-51
2021/12/16 08:32:39;;;;;;;52.15;18.38;;;;;;;13.00;100.00;103580.34;5094239;28;20402;-55
2021/12/16 08:35:06;;;;;;;58.63;19.70;;;;;;;13.08;100.00;103585.00;5076538;28;20035;-52
2021/12/16 08:37:32;;;;;;;56.45;19.70;;;;;;;13.07;100.00;103593.19;5095014;28;20081;-53
2021/12/16 08:39:58;;;;;;;61.03;19.03;;;;;;;13.16;100.00;103593.19;5094550;28;20131;-52
2021/12/16 08:42:23;;;;;;;42.35;18.70;;;;;;;13.29;100.00;103595.56;5075703;28;20500;-53
2021/12/16 08:44:49;;;;;;;41.23;18.30;;;;;;;13.28;100.00;103601.91;5075810;28;20043;-53
2021/12/16 08:47:18;;;;;;;46.58;17.50;;;;;;;13.38;100.00;103601.91;5093735;28;20100;-53
2021/12/16 08:49:44;;;;;;;55.28;17.65;;;;;;;13.32;100.00;103603.31;5094084;28;20119;-52
2021/12/16 08:52:18;;;;;;;63.95;17.77;;;;;;;13.36;100.00;103605.72;5094702;28;20032;-53
2021/12/16 08:54:45;;;;;;;47.97;17.73;;;;;;;13.32;100.00;103595.25;5094091;28;20485;-53
2021/12/16 08:57:11;;;;;;;54.78;16.85;;;;;;;13.52;100.00;103597.09;5093643;28;20027;-50
2021/12/16 08:59:37;;;;;;;58.83;18.25;;;;;;;13.42;100.00;103607.84;5093751;28;20032;-50
2021/12/16 09:02:07;;;;;;;44.38;18.55;;;;;;;13.48;100.00;103618.03;5076557;28;20036;-53
2021/12/16 09:04:34;;;;;;;58.38;17.33;;;;;;;13.53;100.00;103612.22;5093591;28;20036;-53
2021/12/16 09:07:03;;;;;;;84.75;18.98;;;;;;;13.50;100.00;103613.34;5093381;28;20540;-57
2021/12/16 09:09:33;;;;;;;35.95;17.08;;;;;;;13.50;100.00;103621.41;5094313;28;20081;-53
2021/12/16 09:12:09;;;;;;;44.70;17.40;;;;;;;13.58;100.00;103621.50;5075768;28;20043;-50
2021/12/16 09:14:37;;;;;;;47.78;17.13;;;;;;;13.58;100.00;103621.50;5093684;28;20123;-52
2021/12/16 09:17:10;;;;;;;43.58;16.33;;;;;;;13.62;100.00;103630.16;5075667;28;20028;-52
2021/12/16 09:19:39;;;;;;;44.88;18.00;;;;;;;13.73;100.00;103627.28;5093744;28;20442;-52
2021/12/16 09:22:05;;;;;;;45.33;18.98;;;;;;;13.79;100.00;103633.06;5092963;28;20024;-53
2021/12/16 09:24:30;;;;;;;61.10;17.83;;;;;;;13.76;100.00;103636.88;5093420;28;20123;-50
2021/12/16 09:26:56;;;;;;;44.35;16.33;;;;;;;13.84;100.00;103633.44;5074891;28;20047;-55
2021/12/16 09:29:21;;;;;;;45.90;16.77;;;;;;;13.91;100.00;103630.03;5092949;28;20098;-50
2021/12/16 09:31:47;;;;;;;44.67;16.60;;;;;;;13.98;100.00;103632.97;5092817;28;20082;-53
2021/12/16 09:34:12;;;;;;;38.60;16.53;;;;;;;14.13;100.00;103641.38;5074816;28;20035;-49
2021/12/16 09:36:41;;;;;;;35.33;17.23;;;;;;;14.30;100.00;103633.47;5092659;28;20385;-50
2021/12/16 09:39:13;;;;;;;46.10;16.40;;;;;;;14.33;100.00;103639.41;5093552;28;20320;-51
2021/12/16 09:41:41;;;;;;;31.92;15.93;;;;;;;14.37;100.00;103631.88;5092927;28;20252;-53
2021/12/16 09:44:08;;;;;;;40.93;15.67;;;;;;;14.56;100.00;103638.13;5093382;28;20040;-51
2021/12/16 09:46:33;;;;;;;43.85;16.05;;;;;;;14.56;100.00;103632.75;5093641;28;20265;-56
2021/12/16 09:48:59;;;;;;;37.13;16.83;;;;;;;14.61;100.00;103636.63;5094782;28;20104;-54
2021/12/16 09:51:28;;;;;;;53.10;17.48;;;;;;;14.97;100.00;103638.50;5094209;28;20038;-55
2021/12/16 09:53:58;;;;;;;55.37;15.43;;;;;;;15.14;100.00;103639.50;5093655;28;20055;-53
2021/12/16 09:56:26;;;;;;;32.80;16.10;;;;;;;15.14;100.00;103644.00;5093308;28;20287;-54
2021/12/16 09:58:52;;;;;;;51.87;15.00;;;;;;;15.17;100.00;103643.69;5075598;28;20252;-51
2021/12/16 10:01:20;;;;;;;41.57;14.60;;;;;;;15.24;100.00;103644.78;5093509;28;20288;-51
2021/12/16 10:03:48;;;;;;;34.57;15.13;;;;;;;15.42;100.00;103644.72;5074990;28;20789;-52
2021/12/16 10:06:16;;;;;;;30.17;15.10;;;;;;;15.48;100.00;103637.84;5092903;28;20287;-51
2021/12/16 10:08:42;;;;;;;25.33;14.53;;;;;;;15.75;100.00;103639.47;5092772;28;20297;-55
2021/12/16 10:11:09;;;;;;;37.55;14.25;;;;;;;15.83;100.00;103644.06;5092822;28;20268;-53
2021/12/16 10:13:45;;;;;;;43.07;15.00;;;;;;;16.04;100.00;103642.84;5092962;28;20036;-50
2021/12/16 10:18:38;;;;;;;30.30;12.80;;;;;;;16.28;100.00;103646.63;5092619;28;20040;-53
2021/12/16 10:21:07;;;;;;;58.27;13.67;;;;;;;16.32;100.00;103642.56;5093092;28;20032;-51
2021/12/16 10:23:42;;;;;;;17.70;11.40;;;;;;;16.45;100.00;103644.78;5092560;28;20342;-53
2021/12/16 10:26:13;;;;;;;22.23;12.63;;;;;;;16.55;100.00;103642.78;5074431;28;20346;-50
2021/12/16 10:28:45;;;;;;;29.57;12.77;;;;;;;16.84;100.00;103646.84;5092945;28;20308;-50
2021/12/16 10:31:13;;;;;;;21.37;11.77;;;;;;;17.15;100.00;103648.06;5095835;28;20317;-52
2021/12/16 10:33:40;;;;;;;20.93;12.50;;;;;;;17.73;100.00;103639.78;5096741;28;20252;-53
2021/12/16 10:36:14;;;;;;;21.27;13.07;;;;;;;18.21;100.00;103653.31;5096303;28;20347;-52
2021/12/16 10:38:55;;;;;;;16.50;11.30;;;;;;;18.88;100.00;103649.09;5078440;28;20625;-54
2021/12/16 10:41:47;;;;;;;28.87;13.70;;;;;;;19.56;100.00;103652.84;5096188;28;20272;-49
2021/12/16 10:44:21;;;;;;;25.73;13.53;;;;;;;19.66;100.00;103668.84;5096222;28;20260;-49
2021/12/16 10:47:06;;;;;;;18.73;12.03;;;;;;;20.66;100.00;103677.34;5096461;28;20303;-52
2021/12/16 10:49:44;;;;;;;18.17;11.13;;;;;;;21.18;97.85;103679.91;5078331;28;20328;-52
2021/12/16 10:52:13;;;;;;;15.33;10.03;;;;;;;21.96;84.44;103668.00;5096383;28;20089;-52
2021/12/16 10:54:44;;;;;;;13.80;9.77;;;;;;;22.68;74.90;103675.75;5078402;28;20434;-54
2021/12/16 10:57:22;;;;;;;13.00;9.27;;;;;;;23.49;67.87;103676.53;5095991;28;20118;-53
2021/12/16 10:59:54;;;;;;;12.63;8.63;;;;;;;24.00;61.02;103681.41;5096060;28;20043;-52
2021/12/16 11:02:24;;;;;;;15.83;8.60;;;;;;;24.56;56.22;103681.72;5095722;28;20032;-53
2021/12/16 11:04:56;;;;;;;12.83;8.30;;;;;;;24.95;54.59;103682.50;5096074;28;20035;-53
2021/12/16 11:07:26;;;;;;;19.47;8.80;;;;;;;25.32;51.21;103681.72;5095870;28;20031;-52
2021/12/16 11:09:57;;;;;;;12.77;8.77;;;;;;;25.54;50.13;103692.25;5095640;28;20040;-55
2021/12/16 11:12:34;;;;;;;10.97;8.50;;;;;;;25.86;48.58;103690.19;5096227;28;20064;-54
2021/12/16 11:15:28;;;;;;;10.93;8.23;;;;;;;26.22;46.04;103684.88;5061480;28;20032;-53
2021/12/16 11:18:10;;;;;;;11.03;7.40;;;;;;;26.44;44.69;103685.16;5068397;28;20044;-51
2021/12/16 11:20:44;;;;;;;10.93;7.70;;;;;;;26.62;44.51;103689.72;5095767;28;20028;-51
2021/12/16 11:23:18;;;;;;;12.07;7.63;;;;;;;26.92;43.17;103693.50;5095521;28;20122;-51
2021/12/16 11:25:51;;;;;;;11.67;7.87;;;;;;;26.91;43.16;103687.19;5095400;28;20038;-51
2021/12/16 11:28:31;;;;;;;10.47;7.70;;;;;;;26.28;44.05;103677.59;5095368;28;20032;-54
2021/12/16 11:30:59;;;;;;;12.90;8.50;;;;;;;25.06;50.49;103684.50;5095171;28;20024;-51
2021/12/16 11:33:30;;;;;;;13.37;8.67;;;;;;;24.13;52.97;103680.53;5095426;28;20028;-52
2021/12/16 11:36:10;;;;;;;16.50;9.23;;;;;;;23.34;58.63;103675.94;5076819;28;20036;-51
2021/12/16 11:38:45;;;;;;;13.67;9.87;;;;;;;23.26;60.86;103671.53;5095237;28;20040;-55
2021/12/16 11:41:14;;;;;;;14.53;10.17;;;;;;;22.96;65.37;103677.44;5094850;28;20036;-53
2021/12/16 11:43:46;;;;;;;17.07;10.27;;;;;;;23.22;62.27;103670.25;5094878;28;20252;-54
2021/12/16 11:46:23;;;;;;;18.83;10.73;;;;;;;24.33;55.85;103670.28;5095294;28;20433;-54
2021/12/16 11:48:53;;;;;;;17.70;10.50;;;;;;;24.92;54.20;103672.00;5095362;28;20082;-53
2021/12/16 11:51:39;;;;;;;14.83;10.40;;;;;;;25.46;51.66;103665.97;5095013;28;20032;-51
2021/12/16 11:54:15;;;;;;;13.57;10.00;;;;;;;25.68;50.65;103660.06;5076723;28;20035;-52
2021/12/16 11:56:49;;;;;;;13.68;9.95;;;;;;;25.82;49.49;103653.31;5059908;28;20075;-54
2021/12/16 11:59:34;;;;;;;13.70;9.47;;;;;;;26.68;46.52;103662.44;5076704;28;20067;-55
2021/12/16 12:01:59;;;;;;;14.87;9.40;;;;;;;26.76;45.89;103656.59;5095543;28;20433;-55
2021/12/16 12:04:29;;;;;;;12.57;8.77;;;;;;;27.40;43.55;103660.50;5076919;28;20020;-53
2021/12/16 12:06:55;;;;;;;15.70;8.93;;;;;;;27.80;43.25;103658.88;5076573;28;20036;-54
2021/12/16 12:09:33;;;;;;;14.00;8.13;;;;;;;27.94;41.71;103660.25;5060359;28;20464;-53
2021/12/16 12:11:58;;;;;;;16.63;9.53;;;;;;;28.13;41.29;103655.34;5095183;28;20426;-54
2021/12/16 12:14:29;;;;;;;;;;;;;;;28.50;40.11;103661.50;5077014;28;20024;-50
2021/12/16 12:17:05;;;;;;;14.02;9.10;;;;;;;28.74;39.92;103664.94;5094467;28;20365;-52
2021/12/16 12:19:30;;;;;;;13.98;9.95;;;;;;;28.86;39.25;103670.38;5094739;28;20084;-53
2021/12/16 12:21:57;;;;;;;;;;;;;;;29.08;38.29;103661.34;5095191;28;20020;-52
2021/12/16 12:24:25;;;;;;;13.25;9.65;;;;;;;29.47;38.49;103659.38;5076326;28;19908;-51
2021/12/16 12:26:55;;;;;;;17.45;9.73;;;;;;;29.62;37.39;103666.16;5076332;28;20032;-54
2021/12/16 12:29:32;;;;;;;19.48;9.68;;;;;;;29.82;36.86;103668.34;5094013;28;20039;-50
2021/12/16 12:32:09;;;;;;;16.63;10.25;;;;;;;30.14;36.06;103664.81;5094664;28;20060;-52
2021/12/16 12:34:38;;;;;;;15.95;11.07;;;;;;;30.22;35.96;103662.66;5095021;28;20076;-55
2021/12/16 12:37:08;;;;;;;19.80;11.75;;;;;;;30.16;35.81;103670.06;5077078;28;20453;-49
2021/12/16 12:39:39;;;;;;;16.98;12.07;;;;;;;30.14;35.76;103670.31;5075964;28;20044;-52
2021/12/16 12:42:07;;;;;;;18.30;11.75;;;;;;;29.95;36.10;103669.00;5094103;28;20036;-49
2021/12/16 12:44:32;;;;;;;17.60;12.35;;;;;;;30.12;35.87;103667.00;5093984;28;20034;-52
2021/12/16 12:47:06;;;;;;;15.65;11.02;;;;;;;30.41;35.61;103663.94;5093769;28;20507;-52
2021/12/16 12:49:32;;;;;;;19.45;11.77;;;;;;;30.60;34.91;103661.63;5094850;28;20028;-53
2021/12/16 12:52:08;;;;;;;15.05;11.57;;;;;;;30.86;34.77;103661.81;5093536;28;20095;-52
2021/12/16 12:54:34;;;;;;;18.27;11.80;;;;;;;30.69;34.77;103661.13;5093812;28;20154;-52
2021/12/16 12:57:29;;;;;;;17.73;11.57;;;;;;;30.31;35.53;103650.88;5093658;28;20520;-51
2021/12/16 12:59:56;;;;;;;19.17;10.82;;;;;;;30.41;35.45;103655.66;5094271;28;20039;-54
2021/12/16 13:02:29;;;;;;;18.90;11.43;;;;;;;30.27;35.40;103651.69;5093697;28;20020;-52
2021/12/16 13:05:20;;;;;;;17.48;10.10;;;;;;;30.51;35.31;103652.13;5093355;28;20031;-51
2021/12/16 13:07:53;;;;;;;15.10;9.50;;;;;;;30.53;35.14;103654.66;5067257;28;20138;-53
2021/12/16 13:10:33;;;;;;;17.85;10.15;;;;;;;30.26;34.93;103655.53;5093071;28;20032;-51
2021/12/16 13:13:31;;;;;;;13.75;9.10;;;;;;;30.64;34.47;103645.34;5093340;28;20060;-52
2021/12/16 13:16:38;;;;;;;20.50;9.70;;;;;;;30.79;34.48;103649.31;5093539;28;20036;-49
2021/12/16 13:28:52;;;;;;;16.88;8.27;;;;;;;30.13;36.03;103654.06;5093734;28;20470;-51
2021/12/16 13:31:39;;;;;;;14.90;7.85;;;;;;;29.82;35.87;103660.06;5092265;28;20114;-54
2021/12/16 13:34:25;;;;;;;15.70;8.63;;;;;;;29.01;36.53;103656.81;5093024;28;20495;-51
2021/12/16 13:36:54;;;;;;;15.52;11.07;;;;;;;28.15;38.55;103656.00;5093390;28;20036;-51
2021/12/16 13:39:23;;;;;;;18.33;12.33;;;;;;;27.52;40.59;103657.75;5093089;28;20089;-51
2021/12/16 13:42:05;;;;;;;21.73;12.17;;;;;;;27.23;41.60;103655.78;5093038;28;20115;-53
2021/12/16 13:44:41;;;;;;;19.37;12.27;;;;;;;26.31;44.43;103666.19;5093436;28;20036;-55
2021/12/16 14:02:54;;;;;;;13.32;10.05;;;;;;;23.82;54.50;103668.44;5038178;28;20088;-52
2021/12/16 14:05:33;;;;;;;18.40;11.30;;;;;;;23.08;58.74;103665.91;5085444;28;20127;-52
2021/12/16 14:08:10;;;;;;;15.50;11.32;;;;;;;22.62;64.02;103655.59;5096941;28;20036;-53
2021/12/16 14:10:42;;;;;;;19.60;10.90;;;;;;;22.12;68.91;103663.25;5096919;28;20032;-54
2021/12/16 14:14:07;;;;;;;17.93;11.63;;;;;;;21.67;73.77;103669.13;5097195;28;20035;-53
2021/12/16 14:48:06;;;;;;;26.83;15.43;;;;;;;19.48;97.73;103675.50;5096497;28;20256;-55